Aérodrome :
LOGIN :

S'inscrire | Disclaimer

   EN    FR    IT 

 










Légende :    VFR   VFR Marginal   IFR   IFR Intensif   IFR Très Intensif
Visi : 
Plafond : 
>= 8 km
>= 3000ft
5 à 8 km
1000 à 3000 ft
1500m à 5 km
500 à 1000 ft
800 à 1500m
200 à 500 ft
< 800m
< 200 ft
Symboles :   Orages  Brouillard  Fortes neiges  Fortes précipitations  Vent > 20 kt
SIGMETs :   Divers  Orages  Givrage  Turbulence  Onde Orograph.  Cendres Volcan.







- Altitude de l'aérodrome : 458 ft
- Voir les cartes d'approche


LFSI - St-Dizier

DERNIER METAR :
  • 270300Z AUTO 09003KT CAVOK 18/16 Q1016

METARs EXPIRÉS :
  • 270230Z AUTO 10005KT CAVOK 18/16 Q1015
  • 270200Z AUTO 09005KT CAVOK 18/16 Q1015
  • 270130Z AUTO 10004KT CAVOK 17/15 Q1016
  • 270100Z AUTO 10005KT CAVOK 17/15 Q1016
  • 270030Z AUTO 09005KT CAVOK 18/15 Q1016

TAF TAF LFSI
Valide du 26 à 21h jusqu'au 27 à 21h UTC


262000Z 2621/2721 15005KT CAVOK
TEMPO 2710/2715 4000 -SHRA BKN030TCU
Pas de NOTAMs connus pour ce terrain.



MET'MAP, la Météo Aéronautique d'un coup d'oeil ! - Copyright ORBIFLY Décembre 2007 - Disclaimer

ORBIFLY MET'MAP TEAM :

Programmation & Développement : Alexandra Zaïnal
Conception & Développement : Baudouin d'Aumeries
Co-Programmation & Développement : Marc-Olivier Méhu
Soutien technique & logistique : Manuel Goepfert

Contact : metmap@orbifly.com




SOURCES & CREDITS :

   NOAA